Time;durP1;ratioP1;P1;durP2;ratioP2;P2;SDS_P1;SDS_P2;PMS_P1;PMS_P2;Temp;Humidity;BMP_temperature;BMP_pressure;BME280_temperature;BME280_humidity;BME280_pressure;Samples;Min_cycle;Max_cycle;Signal;HPM_P1;HPM_P2
2022/07/01 12:18:18;;;;;;;9.98;6.90;;;;;;;32.73;38.11;98071.16;5087159;27;20401;-77
2022/07/01 12:20:53;;;;;;;8.18;6.78;;;;;;;32.88;37.47;98094.97;5085721;28;20055;-77
2022/07/01 12:23:18;;;;;;;8.20;6.65;;;;;;;33.07;37.26;98093.13;5085900;28;20032;-77
2022/07/01 12:25:51;;;;;;;7.82;6.65;;;;;;;33.25;36.94;98092.47;5084642;28;20039;-80
2022/07/01 12:28:28;;;;;;;7.53;6.55;;;;;;;33.44;35.39;98094.72;5083861;28;20071;-76
2022/07/01 12:31:00;;;;;;;8.65;6.90;;;;;;;33.62;36.09;98097.69;5084610;28;20062;-76
2022/07/01 12:33:26;;;;;;;8.65;6.70;;;;;;;33.82;34.50;98086.00;5084927;28;20024;-76
2022/07/01 12:35:53;;;;;;;10.65;7.53;;;;;;;34.02;35.67;98087.72;5085370;28;20028;-79
2022/07/01 12:38:18;;;;;;;9.77;6.75;;;;;;;34.23;36.38;98082.44;5081318;28;20039;-77
2022/07/01 12:40:44;;;;;;;7.43;6.45;;;;;;;34.43;36.10;98082.84;5087092;28;20029;-78
2022/07/01 12:43:30;;;;;;;9.30;6.85;;;;;;;34.69;36.25;98073.28;5084555;28;20024;-78
2022/07/01 12:45:57;;;;;;;7.88;6.75;;;;;;;34.88;35.38;98060.66;5084425;28;20029;-77
2022/07/01 12:48:23;;;;;;;7.40;6.43;;;;;;;35.12;35.07;98071.47;5086265;28;20051;-77
2022/07/01 12:50:52;;;;;;;6.95;6.30;;;;;;;35.41;35.69;98078.78;5083718;28;20017;-78
2022/07/01 12:53:19;;;;;;;9.75;6.00;;;;;;;35.65;34.87;98063.09;5085459;28;20043;-81
2022/07/01 12:55:47;;;;;;;9.68;6.40;;;;;;;35.91;34.47;98063.50;5080490;28;20020;-80
2022/07/01 12:58:17;;;;;;;15.38;7.55;;;;;;;36.10;33.09;98057.78;5085473;28;20028;-82
2022/07/01 13:00:44;;;;;;;8.48;7.57;;;;;;;36.26;33.50;98063.09;5084703;28;20024;-82
2022/07/01 13:03:10;;;;;;;9.15;7.75;;;;;;;36.41;32.98;98054.63;5079142;28;20119;-80
2022/07/01 13:05:39;;;;;;;11.65;7.40;;;;;;;36.60;32.48;98058.19;5080893;28;20035;-78
2022/07/01 13:08:05;;;;;;;;;;;;;;;36.86;33.62;98060.56;5084841;28;20024;-79
2022/07/01 13:10:30;;;;;;;9.63;7.65;;;;;;;37.14;33.13;98051.81;5082277;28;20261;-78
2022/07/01 13:12:56;;;;;;;7.25;6.55;;;;;;;37.51;32.62;98045.78;5081941;28;20035;-80
2022/07/01 13:15:22;;;;;;;8.35;6.82;;;;;;;37.84;32.71;98038.31;5079014;28;20052;-75
2022/07/01 13:17:48;;;;;;;8.40;6.68;;;;;;;38.18;32.35;98038.88;5099679;28;20048;-77
2022/07/01 13:20:15;;;;;;;10.10;7.47;;;;;;;38.40;30.59;98034.81;5102361;28;20026;-78
2022/07/01 13:22:41;;;;;;;7.90;6.90;;;;;;;38.56;31.24;98036.34;5104041;28;20055;-80
2022/07/01 13:25:08;;;;;;;10.73;6.47;;;;;;;38.77;30.63;98037.16;5103621;28;20478;-80
2022/07/01 13:27:33;;;;;;;7.53;6.72;;;;;;;38.82;28.34;98027.84;5103100;28;20518;-79
2022/07/01 13:30:00;;;;;;;10.23;6.60;;;;;;;38.96;30.05;98022.53;5089451;28;20048;-78
2022/07/01 13:32:25;;;;;;;7.07;6.38;;;;;;;39.28;30.05;98019.78;5089475;28;20070;-78
2022/07/01 13:34:51;;;;;;;8.75;6.90;;;;;;;39.54;29.39;98019.81;5089199;28;20056;-77
2022/07/01 13:37:16;;;;;;;7.10;6.13;;;;;;;39.74;29.47;98018.16;5088977;28;20032;-76
2022/07/01 13:39:42;;;;;;;7.65;6.80;;;;;;;39.98;29.31;98022.81;5089948;28;20039;-77
2022/07/01 13:42:08;;;;;;;9.57;6.30;;;;;;;40.18;29.84;98025.59;5089100;28;20542;-79
2022/07/01 13:44:34;;;;;;;7.97;6.80;;;;;;;40.45;28.25;98017.69;5088873;28;20482;-77
2022/07/01 13:47:01;;;;;;;7.65;6.75;;;;;;;40.53;28.17;98029.50;5088188;28;20435;-77
2022/07/01 13:49:28;;;;;;;6.50;5.90;;;;;;;40.51;27.43;98025.56;5088915;28;20028;-76
2022/07/01 13:51:54;;;;;;;9.13;6.53;;;;;;;40.57;25.81;98029.25;5088029;28;20023;-78
2022/07/01 13:54:19;;;;;;;10.75;6.78;;;;;;;40.33;27.05;98028.34;5089585;28;20039;-78
2022/07/01 13:56:45;;;;;;;7.72;6.68;;;;;;;40.17;27.22;98024.03;5089024;28;20032;-78
2022/07/01 13:59:11;;;;;;;7.72;6.75;;;;;;;40.17;26.94;98026.91;5088919;28;20028;-80
2022/07/01 14:01:37;;;;;;;8.98;6.78;;;;;;;40.22;28.00;98028.25;5088545;28;20103;-77
2022/07/01 14:04:02;;;;;;;9.05;7.40;;;;;;;40.36;28.25;98020.00;5089416;28;20115;-79
2022/07/01 14:06:28;;;;;;;8.80;6.72;;;;;;;40.52;28.31;98022.19;5088164;28;20127;-82
2022/07/01 14:08:53;;;;;;;11.20;7.10;;;;;;;40.56;27.82;98014.09;5071117;28;20147;-81
2022/07/01 14:11:20;;;;;;;8.98;7.03;;;;;;;40.66;27.86;98019.63;5070585;28;20128;-82
2022/07/01 14:13:46;;;;;;;7.90;7.07;;;;;;;40.81;27.91;98026.00;5063607;28;20117;-83
2022/07/01 14:16:11;;;;;;;9.13;6.95;;;;;;;40.91;28.11;98013.00;5063746;28;20053;-84
2022/07/01 14:18:37;;;;;;;9.75;6.88;;;;;;;41.15;27.85;98017.53;5067267;28;20024;-80
2022/07/01 14:21:03;;;;;;;8.05;6.63;;;;;;;41.35;28.17;98013.66;5064670;28;20042;-79
2022/07/01 14:23:30;;;;;;;8.60;6.47;;;;;;;41.58;28.03;98012.94;5063237;28;20119;-79
2022/07/01 14:25:56;;;;;;;7.82;6.90;;;;;;;41.71;26.25;98013.22;5065995;28;20119;-82
2022/07/01 14:28:21;;;;;;;7.70;6.70;;;;;;;41.81;27.29;98013.72;5086893;28;20317;-82
2022/07/01 14:30:47;;;;;;;7.82;7.00;;;;;;;41.91;26.28;98012.16;5087338;28;20059;-77
2022/07/01 14:36:35;;;;;;;7.45;6.60;;;;;;;41.91;26.12;98011.38;5087451;28;20089;-83
2022/07/01 14:39:01;;;;;;;7.43;6.65;;;;;;;42.10;26.46;98012.44;5089393;28;20085;-82
2022/07/01 14:41:26;;;;;;;9.18;6.60;;;;;;;42.28;26.82;98009.53;5088423;28;20448;-85
2022/07/01 14:43:52;;;;;;;10.88;6.95;;;;;;;42.58;26.68;98012.63;5088875;28;20085;-84
2022/07/01 14:46:18;;;;;;;7.68;6.63;;;;;;;42.82;26.08;98009.13;5090243;28;20525;-84
2022/07/01 14:48:43;;;;;;;8.18;6.88;;;;;;;42.85;25.77;98007.31;5090220;28;20471;-86
2022/07/01 14:51:09;;;;;;;7.43;6.70;;;;;;;42.81;25.09;98019.09;5090100;28;20024;-85
2022/07/01 14:53:35;;;;;;;10.40;6.70;;;;;;;42.68;25.75;98016.00;5090627;28;20476;-79
2022/07/01 14:56:00;;;;;;;6.85;6.22;;;;;;;42.74;25.53;98024.63;5089136;28;20487;-74
2022/07/01 14:58:26;;;;;;;10.43;7.03;;;;;;;42.75;24.43;98026.19;5089403;28;20126;-74
2022/07/01 15:00:52;;;;;;;7.85;6.95;;;;;;;42.59;25.10;98022.84;5090959;28;20127;-74
2022/07/01 15:03:17;;;;;;;10.05;7.63;;;;;;;42.31;24.12;98023.66;5089825;28;20055;-74
2022/07/01 15:05:43;;;;;;;9.82;7.07;;;;;;;41.85;24.58;98022.09;5089990;28;20430;-74
2022/07/01 15:08:08;;;;;;;8.68;7.18;;;;;;;41.55;25.12;98022.59;5089745;28;20533;-74
2022/07/01 15:10:34;;;;;;;9.20;7.80;;;;;;;41.20;24.82;98021.72;5089463;28;20020;-75
2022/07/01 15:12:59;;;;;;;9.48;7.07;;;;;;;40.88;25.24;98024.72;5090023;28;20036;-74
2022/07/01 15:15:25;;;;;;;12.25;7.45;;;;;;;40.77;25.94;98019.72;5090242;28;20399;-74
2022/07/01 15:17:50;;;;;;;8.43;7.43;;;;;;;40.86;26.22;98024.44;5087898;28;20043;-73
2022/07/01 15:20:16;;;;;;;9.45;7.45;;;;;;;40.94;26.37;98016.91;5089430;28;20032;-73
2022/07/01 15:22:43;;;;;;;8.10;7.35;;;;;;;41.07;26.45;98007.78;5089859;28;20028;-73
2022/07/01 15:25:10;;;;;;;9.25;7.60;;;;;;;41.01;26.59;98006.97;5088987;28;20105;-73
2022/07/01 15:27:35;;;;;;;9.32;7.82;;;;;;;40.92;26.25;98011.69;5089894;28;20055;-72
2022/07/01 15:30:03;;;;;;;13.45;7.90;;;;;;;40.84;26.63;98013.47;5090274;28;20078;-73
2022/07/01 15:32:29;;;;;;;9.05;7.05;;;;;;;40.77;26.54;98014.75;5089681;28;20035;-73
2022/07/01 15:34:55;;;;;;;8.93;7.72;;;;;;;40.91;26.84;98010.13;5089150;28;20076;-73
2022/07/01 15:37:20;;;;;;;9.20;7.28;;;;;;;40.93;26.51;98009.59;5089743;28;20028;-73
2022/07/01 15:39:46;;;;;;;10.38;7.57;;;;;;;40.96;26.78;98019.28;5087816;28;20036;-73
2022/07/01 15:42:15;;;;;;;8.20;6.75;;;;;;;40.97;26.31;98013.00;5087609;28;20485;-72
2022/07/01 15:44:40;;;;;;;7.82;7.03;;;;;;;41.06;26.29;98018.53;5089307;28;20154;-73
2022/07/01 15:49:50;;;;;;;8.00;6.80;;;;;;;40.96;26.50;98014.31;5073070;28;20061;-72
2022/07/01 15:52:16;;;;;;;8.32;7.07;;;;;;;41.09;26.53;98016.69;5069141;28;20055;-72
2022/07/01 15:54:41;;;;;;;7.88;6.45;;;;;;;41.16;26.51;97996.09;5086720;28;20051;-72
2022/07/01 15:57:06;;;;;;;7.88;6.38;;;;;;;41.33;26.39;97983.84;5088066;28;20032;-71
2022/07/01 15:59:32;;;;;;;9.82;6.68;;;;;;;41.45;25.71;97979.66;5088523;28;20107;-71
2022/07/01 16:01:58;;;;;;;8.25;6.03;;;;;;;41.41;24.69;97978.34;5069996;28;20426;-72
2022/07/01 16:04:31;;;;;;;7.90;6.57;;;;;;;41.21;26.33;97977.25;5088396;28;20608;-73
2022/07/01 16:06:56;;;;;;;7.00;6.30;;;;;;;41.13;25.80;97993.47;5086820;28;20042;-72
2022/07/01 16:09:22;;;;;;;10.88;6.93;;;;;;;40.89;26.17;98015.59;5088039;28;20379;-73
2022/07/01 16:11:47;;;;;;;6.85;6.10;;;;;;;40.57;26.09;98012.78;5087245;28;20012;-72
2022/07/01 16:14:19;;;;;;;9.23;6.63;;;;;;;40.26;26.51;98000.06;5087928;28;20056;-72
2022/07/01 16:16:46;;;;;;;8.93;6.97;;;;;;;39.90;26.40;98002.41;5084749;28;20045;-72
2022/07/01 16:19:12;;;;;;;8.18;6.80;;;;;;;39.48;26.85;98018.19;5085935;28;20020;-72
2022/07/01 16:21:39;;;;;;;8.23;7.07;;;;;;;39.10;27.16;98029.50;5084704;28;20024;-71
2022/07/01 16:24:08;;;;;;;8.55;7.00;;;;;;;38.70;27.60;98026.91;5064253;28;20069;-71
2022/07/01 16:26:36;;;;;;;8.55;6.32;;;;;;;38.31;28.01;98015.66;5084102;28;20190;-72
2022/07/01 16:29:02;;;;;;;;;;;;;;;38.01;28.68;98009.22;5065943;28;20081;-72
2022/07/01 16:31:28;;;;;;;7.93;7.10;;;;;;;37.63;28.74;98037.41;5085360;28;19945;-71
2022/07/01 16:33:53;;;;;;;10.93;7.40;;;;;;;37.01;29.57;98057.78;5087185;28;20048;-75
2022/07/01 16:36:29;;;;;;;10.18;7.55;;;;;;;36.28;30.47;98043.41;5087354;28;20115;-75
2022/07/01 16:39:15;;;;;;;13.35;8.30;;;;;;;35.06;32.55;98072.59;5085810;28;20016;-75
2022/07/01 16:41:55;;;;;;;16.08;8.13;;;;;;;33.87;35.66;98067.53;5086261;28;20086;-75
2022/07/01 16:44:55;;;;;;;14.88;7.50;;;;;;;32.56;37.60;98051.41;5084094;28;20078;-75
2022/07/01 16:47:26;;;;;;;16.40;9.45;;;;;;;31.35;39.79;98072.41;5088471;28;20365;-75
2022/07/01 16:49:54;;;;;;;10.10;8.45;;;;;;;30.47;42.04;98104.13;5087798;28;20082;-74
2022/07/01 16:52:21;;;;;;;12.07;10.60;;;;;;;29.80;43.05;98117.25;5088268;28;20032;-74
2022/07/01 16:55:01;;;;;;;17.45;10.55;;;;;;;29.20;45.13;98128.47;5088890;28;20377;-76
2022/07/01 16:57:27;;;;;;;10.75;9.30;;;;;;;28.67;45.91;98160.78;5089099;28;20039;-78
2022/07/01 16:59:54;;;;;;;19.63;10.27;;;;;;;28.27;48.26;98173.84;5071116;28;20042;-77
2022/07/01 17:02:21;;;;;;;17.35;10.52;;;;;;;27.84;48.57;98135.69;5088830;28;20028;-74
2022/07/01 17:04:50;;;;;;;13.77;10.15;;;;;;;27.47;49.56;98118.41;5091935;28;20020;-73
2022/07/01 17:07:15;;;;;;;;;;;;;;;27.20;49.19;98150.03;5093471;28;20024;-73
2022/07/01 17:09:44;;;;;;;12.70;10.00;;;;;;;26.99;50.03;98165.09;5093001;28;19919;-73
2022/07/01 17:12:14;;;;;;;13.57;10.80;;;;;;;26.87;49.94;98189.72;5092149;28;20031;-75
2022/07/01 17:14:47;;;;;;;14.40;10.30;;;;;;;26.83;50.15;98188.13;5093320;28;20083;-75
2022/07/01 17:17:17;;;;;;;17.30;11.25;;;;;;;26.75;50.47;98195.78;5092231;28;20108;-70
2022/07/01 17:19:43;;;;;;;17.40;10.65;;;;;;;26.69;50.88;98229.19;5092920;28;20028;-70
2022/07/01 17:22:15;;;;;;;14.18;10.20;;;;;;;26.66;50.60;98246.06;5093029;28;20434;-69
2022/07/01 17:24:55;;;;;;;12.77;10.20;;;;;;;26.55;51.32;98246.16;5093168;28;20084;-70
2022/07/01 17:27:52;;;;;;;15.27;10.70;;;;;;;26.37;52.35;98247.00;5093533;28;20089;-69
2022/07/01 17:30:22;;;;;;;13.10;10.77;;;;;;;26.26;53.16;98257.53;5067116;28;20402;-70
2022/07/01 17:32:51;;;;;;;17.90;10.95;;;;;;;26.15;54.02;98277.22;5092978;28;20035;-69
2022/07/01 17:35:17;;;;;;;;;;;;;;;26.07;53.33;98267.97;5092509;28;20073;-69
2022/07/01 17:37:49;;;;;;;11.88;9.15;;;;;;;26.04;54.08;98265.19;5092985;28;19908;-69
2022/07/01 17:40:18;;;;;;;17.88;10.43;;;;;;;26.06;54.33;98262.78;5092988;28;20473;-70
2022/07/01 17:42:46;;;;;;;18.85;12.15;;;;;;;26.02;54.94;98288.06;5092462;28;20468;-69
2022/07/01 17:45:13;;;;;;;16.58;11.13;;;;;;;25.81;55.76;98323.44;5091919;28;20455;-68
2022/07/01 17:47:41;;;;;;;13.68;10.43;;;;;;;25.49;57.58;98352.28;5091519;28;20039;-67
2022/07/01 17:50:07;;;;;;;17.88;12.57;;;;;;;24.97;58.74;98367.41;5091442;28;20040;-68
2022/07/01 17:52:33;;;;;;;19.30;12.23;;;;;;;24.33;61.91;98357.47;5092434;28;20528;-68
2022/07/01 17:54:58;;;;;;;16.17;11.52;;;;;;;23.80;62.68;98316.69;5092091;28;20028;-68
2022/07/01 17:57:27;;;;;;;16.58;11.63;;;;;;;23.40;67.49;98257.63;5091518;28;20024;-68
2022/07/01 17:59:55;;;;;;;18.30;12.38;;;;;;;22.96;68.27;98222.84;5092104;28;20035;-68
2022/07/01 18:02:22;;;;;;;18.92;12.60;;;;;;;22.60;68.54;98220.53;5091575;28;20056;-68
2022/07/01 18:04:48;;;;;;;18.48;12.57;;;;;;;22.34;70.74;98220.59;5092821;28;20659;-68
2022/07/01 18:07:14;;;;;;;17.95;11.93;;;;;;;22.07;72.07;98223.47;5092893;28;20472;-68
2022/07/01 18:09:39;;;;;;;14.88;11.93;;;;;;;21.91;71.67;98223.66;5092016;28;20020;-69
2022/07/01 18:12:23;;;;;;;17.17;12.48;;;;;;;21.81;71.74;98222.31;5092048;28;20028;-68
2022/07/01 18:14:56;;;;;;;13.13;10.65;;;;;;;21.74;71.22;98244.56;5091755;28;20099;-68
2022/07/01 18:17:32;;;;;;;14.57;11.43;;;;;;;21.68;73.64;98275.56;5072942;28;20051;-69
2022/07/01 18:20:47;;;;;;;14.68;10.70;;;;;;;21.55;73.10;98316.81;5090076;28;20028;-69
2022/07/01 18:23:36;;;;;;;14.20;10.60;;;;;;;21.47;74.60;98317.03;5081441;28;20036;-69
2022/07/01 18:26:02;;;;;;;;;;;;;;;21.42;73.54;98298.66;5090127;28;20047;-69
2022/07/01 18:28:35;;;;;;;13.20;10.82;;;;;;;21.36;74.70;98272.25;5089668;28;19959;-69
2022/07/01 18:31:13;;;;;;;14.48;11.43;;;;;;;21.31;76.13;98281.75;5089275;28;20728;-69
2022/07/01 18:34:00;;;;;;;15.57;10.70;;;;;;;21.27;76.55;98306.78;5089028;28;20042;-69
2022/07/01 18:36:31;;;;;;;12.48;10.10;;;;;;;21.27;76.95;98319.91;5086297;28;20031;-68
2022/07/01 18:38:57;;;;;;;14.13;10.77;;;;;;;21.25;77.63;98334.22;5089265;28;20020;-69
2022/07/01 18:41:23;;;;;;;15.60;11.52;;;;;;;21.24;76.66;98334.59;5086166;28;20077;-69
2022/07/01 18:43:48;;;;;;;14.63;10.25;;;;;;;21.26;78.30;98332.25;5089736;28;20051;-70
2022/07/01 18:46:14;;;;;;;12.30;9.80;;;;;;;21.21;79.04;98358.44;5089469;28;20058;-68
2022/07/01 18:48:40;;;;;;;14.82;10.95;;;;;;;21.16;78.42;98360.75;5088836;28;20059;-69
2022/07/01 18:51:07;;;;;;;15.52;11.57;;;;;;;21.16;80.57;98342.03;5088837;28;20760;-69
2022/07/01 18:53:33;;;;;;;13.68;11.15;;;;;;;21.10;81.78;98326.78;5089243;28;20103;-70
2022/07/01 18:55:58;;;;;;;17.15;12.10;;;;;;;21.01;81.13;98331.78;5089259;28;20131;-69
2022/07/01 18:58:23;;;;;;;14.35;12.30;;;;;;;20.90;79.75;98346.31;5089274;28;20036;-68
2022/07/01 19:00:49;;;;;;;14.68;13.02;;;;;;;20.87;80.35;98374.94;5071915;28;20153;-69
2022/07/01 19:03:15;;;;;;;15.00;13.02;;;;;;;20.82;80.33;98386.38;5090448;28;20039;-70
2022/07/01 19:05:40;;;;;;;17.77;14.13;;;;;;;20.77;80.09;98395.84;5090709;28;20032;-69
2022/07/01 19:08:06;;;;;;;17.27;13.80;;;;;;;20.72;81.29;98412.81;5090877;28;20024;-69
2022/07/01 19:10:31;;;;;;;15.43;13.38;;;;;;;20.64;82.20;98430.56;5090807;28;20558;-69
2022/07/01 19:12:57;;;;;;;16.88;14.93;;;;;;;20.53;82.35;98435.91;5090626;28;20297;-70
2022/07/01 19:15:22;;;;;;;16.95;14.13;;;;;;;20.34;81.77;98442.22;5090316;28;20056;-69
2022/07/01 19:17:48;;;;;;;18.05;13.70;;;;;;;20.24;81.95;98454.75;5090081;28;20373;-70
2022/07/01 19:20:14;;;;;;;19.80;14.90;;;;;;;20.16;82.06;98467.69;5090292;28;20051;-69
2022/07/01 19:22:41;;;;;;;17.98;14.90;;;;;;;20.09;81.63;98475.88;5089767;28;20062;-70
2022/07/01 19:25:07;;;;;;;16.70;14.27;;;;;;;20.00;81.50;98478.00;5089893;28;20024;-70
2022/07/01 19:27:33;;;;;;;16.83;13.07;;;;;;;19.97;81.83;98496.22;5072232;28;20058;-70
2022/07/01 19:29:58;;;;;;;17.73;12.65;;;;;;;19.92;82.05;98485.38;5089531;28;20024;-70
2022/07/01 19:32:24;;;;;;;16.65;12.40;;;;;;;19.88;82.46;98513.09;5090117;28;20024;-69
2022/07/01 19:34:50;;;;;;;16.88;13.18;;;;;;;19.81;81.92;98529.56;5090313;28;20396;-70
2022/07/01 19:37:16;;;;;;;15.32;12.65;;;;;;;19.76;82.34;98535.44;5090195;28;20032;-71
2022/07/01 19:39:42;;;;;;;15.60;11.65;;;;;;;19.73;82.45;98525.81;5072217;28;20070;-70
2022/07/01 19:42:08;;;;;;;13.70;11.32;;;;;;;19.71;82.46;98535.69;5089684;28;20051;-70
2022/07/01 19:44:33;;;;;;;13.50;11.77;;;;;;;19.67;82.67;98543.13;5090284;28;20503;-70
2022/07/01 19:46:58;;;;;;;14.10;11.38;;;;;;;19.61;82.86;98539.75;5090109;28;20111;-71
2022/07/01 19:49:24;;;;;;;15.27;11.90;;;;;;;19.58;82.75;98530.16;5090389;28;20412;-71
2022/07/01 19:51:50;;;;;;;12.30;10.88;;;;;;;19.53;82.38;98515.72;5089833;28;20024;-71
2022/07/01 19:54:15;;;;;;;10.63;9.52;;;;;;;19.47;83.25;98509.59;5089654;28;20016;-70
2022/07/01 19:56:41;;;;;;;10.65;9.13;;;;;;;19.37;82.13;98529.56;5089966;28;20073;-71
2022/07/01 19:59:06;;;;;;;11.38;9.38;;;;;;;19.30;81.99;98546.84;5090246;28;20110;-72
2022/07/01 20:01:33;;;;;;;12.68;9.10;;;;;;;19.22;81.38;98556.13;5089740;28;20070;-71
2022/07/01 20:03:59;;;;;;;12.43;9.80;;;;;;;19.15;81.40;98559.53;5090116;28;20479;-71
2022/07/01 20:06:26;;;;;;;9.50;8.50;;;;;;;19.07;82.34;98547.38;5089392;28;20695;-69
2022/07/01 20:08:52;;;;;;;9.93;8.43;;;;;;;19.03;81.91;98554.81;5089734;28;20062;-69
2022/07/01 20:11:17;;;;;;;11.00;8.52;;;;;;;19.02;82.30;98572.66;5089747;28;20430;-69
2022/07/01 20:13:43;;;;;;;10.15;9.05;;;;;;;18.95;81.58;98564.84;5089717;28;20451;-69
2022/07/01 20:16:08;;;;;;;11.73;8.50;;;;;;;18.94;81.59;98576.31;5089291;28;20460;-69
2022/07/01 20:18:35;;;;;;;9.88;8.88;;;;;;;18.89;81.81;98594.06;5089794;28;20120;-69
2022/07/01 20:21:01;;;;;;;9.35;8.45;;;;;;;18.85;81.28;98607.81;5089088;28;20419;-69
2022/07/01 20:23:27;;;;;;;10.25;8.27;;;;;;;18.85;82.12;98632.03;5089649;28;20028;-69
2022/07/01 20:25:53;;;;;;;9.30;8.40;;;;;;;18.81;81.38;98637.47;5086314;28;20411;-69
2022/07/01 20:28:20;;;;;;;8.35;7.55;;;;;;;18.82;81.17;98650.19;5089877;28;20047;-69
2022/07/01 20:30:45;;;;;;;11.57;7.10;;;;;;;18.82;81.65;98654.94;5089762;28;20020;-69
2022/07/01 20:33:11;;;;;;;12.65;8.82;;;;;;;18.81;81.17;98665.25;5088678;28;20027;-69
2022/07/01 20:35:36;;;;;;;8.75;7.78;;;;;;;18.81;81.36;98672.78;5088640;28;20097;-69
2022/07/01 20:38:02;;;;;;;7.95;7.18;;;;;;;18.74;81.85;98662.25;5089622;28;20021;-69
2022/07/01 20:40:28;;;;;;;9.52;8.63;;;;;;;18.71;81.69;98676.84;5075545;28;20028;-69
2022/07/01 20:42:53;;;;;;;8.35;7.43;;;;;;;18.66;81.48;98694.50;5093700;28;20410;-69
2022/07/01 20:45:19;;;;;;;9.73;8.32;;;;;;;18.64;80.96;98696.81;5093341;28;20020;-69
2022/07/01 20:47:44;;;;;;;10.05;8.13;;;;;;;18.61;81.59;98705.84;5093588;28;20024;-69
2022/07/01 20:50:11;;;;;;;8.80;8.00;;;;;;;18.53;81.08;98707.56;5094003;28;20388;-69
2022/07/01 20:52:38;;;;;;;9.88;8.40;;;;;;;18.49;81.33;98716.94;5093260;28;20024;-68
2022/07/01 20:55:03;;;;;;;9.30;8.35;;;;;;;18.44;81.49;98749.31;5074397;28;20028;-69
2022/07/01 20:57:29;;;;;;;8.05;7.10;;;;;;;18.41;81.48;98783.34;5093106;28;20356;-70
2022/07/01 20:59:54;;;;;;;8.57;7.22;;;;;;;18.35;81.08;98775.53;5094205;28;20021;-69
2022/07/01 21:02:20;;;;;;;7.90;7.03;;;;;;;18.33;80.99;98773.13;5093055;28;20425;-70
2022/07/01 21:04:49;;;;;;;8.52;6.28;;;;;;;18.28;81.13;98773.31;5093609;28;20503;-69
2022/07/01 21:07:16;;;;;;;8.90;7.07;;;;;;;18.26;80.95;98789.50;5093031;28;20111;-69
2022/07/01 21:09:41;;;;;;;7.90;7.07;;;;;;;18.24;81.13;98806.50;5092969;28;20266;-69
2022/07/01 21:12:07;;;;;;;8.75;6.97;;;;;;;18.25;81.04;98805.34;5092883;28;20250;-68
2022/07/01 21:14:33;;;;;;;9.65;6.57;;;;;;;18.25;81.08;98805.34;5093261;28;20052;-68
2022/07/01 21:16:58;;;;;;;7.20;6.50;;;;;;;18.18;80.11;98793.16;5092596;28;20071;-70
2022/07/01 21:19:24;;;;;;;8.00;6.55;;;;;;;18.15;79.84;98786.34;5093289;28;20081;-69
2022/07/01 21:21:50;;;;;;;7.70;6.93;;;;;;;18.19;80.64;98787.28;5092935;28;20387;-69
2022/07/01 21:24:15;;;;;;;7.82;6.95;;;;;;;18.17;80.10;98783.19;5092381;28;20062;-68
2022/07/01 21:26:41;;;;;;;6.57;5.85;;;;;;;18.14;79.88;98799.38;5092711;28;20024;-69
2022/07/01 21:29:06;;;;;;;6.63;6.00;;;;;;;18.15;79.98;98809.34;5093257;28;20020;-69
2022/07/01 21:31:32;;;;;;;6.40;5.75;;;;;;;18.16;80.54;98801.84;5093130;28;20020;-69
2022/07/01 21:33:57;;;;;;;7.70;6.30;;;;;;;18.12;79.93;98801.72;5092896;28;20046;-68
2022/07/01 21:36:23;;;;;;;6.35;5.60;;;;;;;18.12;79.85;98790.63;5074007;28;20074;-69
2022/07/01 21:38:50;;;;;;;7.38;5.60;;;;;;;18.05;79.33;98783.97;5093628;28;20035;-69
2022/07/01 21:41:21;;;;;;;5.25;4.75;;;;;;;18.03;79.54;98808.47;5094038;28;20107;-70
2022/07/01 21:43:51;;;;;;;6.57;4.95;;;;;;;18.03;79.14;98850.09;5093205;28;20023;-71
2022/07/01 21:46:18;;;;;;;;;;;;;;;18.02;78.58;98871.50;5094174;28;20027;-70
2022/07/01 21:48:45;;;;;;;4.60;4.10;;;;;;;18.04;79.52;98890.56;5093457;28;20256;-70
2022/07/01 21:51:12;;;;;;;4.25;3.75;;;;;;;18.00;78.63;98910.66;5093469;28;20113;-70
2022/07/01 21:53:42;;;;;;;7.20;5.95;;;;;;;18.00;79.07;98927.31;5093400;28;20028;-70
2022/07/01 21:56:10;;;;;;;8.90;7.30;;;;;;;17.99;78.85;98935.97;5093434;28;20046;-71
2022/07/01 21:58:37;;;;;;;8.93;5.63;;;;;;;17.98;78.56;98937.91;5093438;28;20020;-70
2022/07/01 22:01:04;;;;;;;4.80;4.13;;;;;;;17.98;78.55;98931.56;5090783;28;20016;-70
2022/07/01 22:03:32;;;;;;;6.40;3.75;;;;;;;17.98;77.99;98937.09;5092508;28;20024;-71
2022/07/01 22:08:41;;;;;;;6.22;3.53;;;;;;;18.03;77.93;98911.13;5092085;28;20113;-71
2022/07/01 22:11:07;;;;;;;3.85;3.50;;;;;;;18.06;77.82;98913.25;5092774;28;20456;-71
2022/07/01 22:14:01;;;;;;;3.50;2.90;;;;;;;18.08;77.79;98941.47;5092507;28;20531;-71
2022/07/01 22:16:30;;;;;;;2.85;2.40;;;;;;;18.06;77.53;98943.78;5080314;28;20051;-71
2022/07/01 22:18:57;;;;;;;3.22;2.72;;;;;;;18.02;76.99;98951.97;5093018;28;20418;-71
2022/07/01 22:21:25;;;;;;;3.28;2.40;;;;;;;18.04;77.03;98937.75;5093003;28;20038;-71
2022/07/01 22:23:53;;;;;;;4.10;2.60;;;;;;;18.07;77.01;98929.59;5092896;28;20039;-72
2022/07/01 22:26:21;;;;;;;2.55;2.35;;;;;;;18.13;76.74;98935.75;5092639;28;20169;-71
2022/07/01 22:28:49;;;;;;;2.70;2.50;;;;;;;18.15;76.64;98934.25;5093074;28;20048;-71
2022/07/01 22:31:17;;;;;;;4.35;2.38;;;;;;;18.17;76.42;98924.78;5092576;28;20028;-71
2022/07/01 22:33:48;;;;;;;3.42;2.05;;;;;;;18.18;76.43;98898.63;5093041;28;20110;-72
2022/07/01 22:36:15;;;;;;;2.30;2.10;;;;;;;18.12;76.33;98887.75;5092689;28;20028;-71
2022/07/01 22:38:42;;;;;;;3.75;2.13;;;;;;;18.13;76.31;98888.56;5093000;28;20055;-72
2022/07/01 22:41:08;;;;;;;4.93;2.40;;;;;;;18.17;75.88;98883.13;5089500;28;20032;-70
2022/07/01 22:43:35;;;;;;;3.35;2.70;;;;;;;18.16;75.84;98885.09;5092725;28;20454;-71
2022/07/01 22:46:19;;;;;;;4.63;2.95;;;;;;;18.14;75.68;98870.75;5092522;28;20051;-71
2022/07/01 22:49:03;;;;;;;4.53;2.50;;;;;;;18.18;75.60;98874.47;5072692;28;20414;-71
2022/07/01 22:51:34;;;;;;;3.28;2.30;;;;;;;18.19;75.54;98866.94;5092157;28;20032;-71
2022/07/01 22:54:15;;;;;;;4.60;2.53;;;;;;;18.19;75.29;98859.47;5092392;28;20024;-71
2022/07/01 22:56:41;;;;;;;4.32;2.60;;;;;;;18.22;75.22;98842.13;5092283;28;20044;-70
2022/07/01 22:59:16;;;;;;;2.80;2.33;;;;;;;18.24;75.13;98837.03;5092570;28;20456;-71
2022/07/01 23:01:45;;;;;;;3.88;2.80;;;;;;;18.30;75.10;98829.31;5091348;28;20028;-71
2022/07/01 23:04:17;;;;;;;5.18;2.95;;;;;;;18.32;75.07;98812.34;5092309;28;20141;-70
2022/07/01 23:06:55;;;;;;;3.67;2.58;;;;;;;18.33;74.81;98794.53;5092162;28;20020;-71
2022/07/01 23:09:39;;;;;;;4.53;2.55;;;;;;;18.33;74.93;98802.84;5092679;28;20028;-71
2022/07/01 23:12:10;;;;;;;5.75;2.80;;;;;;;18.35;74.64;98800.53;5090834;28;20051;-71
2022/07/01 23:17:28;;;;;;;4.65;2.80;;;;;;;18.35;74.35;98803.31;5090673;28;20055;-70
2022/07/01 23:19:55;;;;;;;3.80;2.78;;;;;;;18.32;74.14;98804.81;5092321;28;20039;-71
2022/07/01 23:22:21;;;;;;;3.42;2.53;;;;;;;18.30;74.09;98809.88;5073804;28;20387;-71
2022/07/01 23:24:48;;;;;;;4.95;3.78;;;;;;;18.25;74.08;98819.25;5091757;28;20020;-71
2022/07/01 23:27:15;;;;;;;4.25;3.38;;;;;;;18.22;73.94;98813.53;5091528;28;20111;-70
2022/07/01 23:29:42;;;;;;;5.60;2.78;;;;;;;18.18;74.18;98815.38;5092191;28;20035;-71
2022/07/01 23:32:08;;;;;;;6.38;3.00;;;;;;;18.17;74.19;98814.56;5091654;28;20043;-70
2022/07/01 23:34:34;;;;;;;4.07;2.92;;;;;;;18.18;74.16;98813.41;5092179;28;20023;-71
2022/07/01 23:37:00;;;;;;;4.13;3.10;;;;;;;18.19;74.14;98828.09;5088834;28;20443;-70
2022/07/01 23:39:26;;;;;;;3.70;2.90;;;;;;;18.18;74.27;98851.44;5090282;28;20627;-70
2022/07/01 23:41:51;;;;;;;6.82;3.08;;;;;;;18.17;74.18;98869.25;5091737;28;20081;-70
2022/07/01 23:44:17;;;;;;;3.65;2.70;;;;;;;18.10;74.28;98881.72;5091794;28;20035;-70
2022/07/01 23:46:43;;;;;;;5.70;2.78;;;;;;;17.96;73.80;98893.03;5090389;28;20031;-70
2022/07/01 23:49:09;;;;;;;4.90;3.13;;;;;;;17.91;74.04;98900.72;5091809;28;20043;-69
2022/07/01 23:51:35;;;;;;;4.68;3.17;;;;;;;17.86;74.05;98902.53;5091849;28;20027;-70
2022/07/01 23:54:00;;;;;;;4.10;3.20;;;;;;;17.82;74.23;98898.00;5091650;28;20024;-70
2022/07/01 23:56:26;;;;;;;3.20;2.90;;;;;;;17.81;74.19;98907.47;5091008;28;20461;-70
2022/07/01 23:58:51;;;;;;;3.55;3.00;;;;;;;17.79;74.11;98913.34;5091563;28;20028;-70
